Wetterdaten: aktuell Donnerstag, 29.09.2022 16:20
Datum Zeit Temp. A. Feuchte A. Luftdruck Regen Wind Taupunkt Windchill Windben
29.09.2022 16:20 11,9 C 79 % 1004,6 hPa 0,0 l/m 4,8 km/h (1 Bft) 8,4 C 11,9 C 12,9 km/h (3 Bft)
29.09.2022 16:11 12,3 C 78 % 1004,6 hPa 0,0 l/m 5,1 km/h (1 Bft) 8,6 C 12,3 C 12,9 km/h (3 Bft)
29.09.2022 16:00 12,8 C 78 % 1004,5 hPa 0,0 l/m 4,6 km/h (1 Bft) 9,1 C 12,8 C 14,5 km/h (3 Bft)
29.09.2022 15:50 13,1 C 76 % 1004,4 hPa 0,0 l/m 3,1 km/h (1 Bft) 9,0 C 13,1 C 8,0 km/h (2 Bft)
29.09.2022 15:41 13,1 C 77 % 1004,2 hPa 0,0 l/m 2,5 km/h (1 Bft) 9,2 C 13,1 C 4,8 km/h (1 Bft)
29.09.2022 15:30 13,1 C 77 % 1004,2 hPa 0,0 l/m 1,6 km/h (1 Bft) 9,2 C 13,1 C 4,8 km/h (1 Bft)
29.09.2022 15:20 12,9 C 73 % 1004,2 hPa 0,0 l/m 1,4 km/h (1 Bft) 8,2 C 12,9 C 4,8 km/h (1 Bft)
29.09.2022 15:11 12,9 C 79 % 1004,1 hPa 0,0 l/m 2,1 km/h (1 Bft) 9,3 C 12,9 C 6,4 km/h (2 Bft)
29.09.2022 15:00 12,8 C 78 % 1004,2 hPa 0,0 l/m 1,1 km/h (1 Bft) 9,1 C 12,8 C 4,8 km/h (1 Bft)
29.09.2022 14:50 12,8 C 75 % 1004,2 hPa 0,0 l/m 0,4 km/h (0 Bft) 8,5 C 12,8 C 3,2 km/h (1 Bft)
29.09.2022 14:41 12,7 C 76 % 1004,3 hPa 0,0 l/m 1,4 km/h (1 Bft) 8,6 C 12,7 C 8,0 km/h (2 Bft)
29.09.2022 14:30 12,9 C 77 % 1004,3 hPa 0,0 l/m 1,7 km/h (1 Bft) 9,0 C 12,9 C 9,7 km/h (2 Bft)
29.09.2022 14:20 12,9 C 76 % 1004,2 hPa 0,0 l/m 3,2 km/h (1 Bft) 8,8 C 12,9 C 6,4 km/h (2 Bft)
29.09.2022 14:11 12,9 C 74 % 1004,2 hPa 0,0 l/m 2,4 km/h (1 Bft) 8,4 C 12,9 C 8,0 km/h (2 Bft)
29.09.2022 14:00 12,9 C 75 % 1004,2 hPa 0,0 l/m 6,4 km/h (2 Bft) 8,6 C 12,9 C 12,9 km/h (3 Bft)
29.09.2022 13:50 13,1 C 73 % 1004,2 hPa 0,0 l/m 6,3 km/h (2 Bft) 8,4 C 13,1 C 16,1 km/h (3 Bft)
29.09.2022 13:41 13,0 C 81 % 1004,4 hPa 0,0 l/m 4,3 km/h (1 Bft) 9,8 C 13,0 C 11,3 km/h (2 Bft)
29.09.2022 13:30 12,9 C 79 % 1004,2 hPa 0,0 l/m 2,7 km/h (1 Bft) 9,3 C 12,9 C 9,7 km/h (2 Bft)
29.09.2022 13:20 12,7 C 82 % 1004,2 hPa 0,0 l/m 3,4 km/h (1 Bft) 9,7 C 12,7 C 9,7 km/h (2 Bft)
29.09.2022 13:11 12,6 C 80 % 1004,2 hPa 0,0 l/m 3,7 km/h (1 Bft) 9,2 C 12,6 C 9,7 km/h (2 Bft)
29.09.2022 13:00 12,6 C 83 % 1004,2 hPa 0,0 l/m 4,0 km/h (1 Bft) 9,8 C 12,6 C 14,5 km/h (3 Bft)
_ Min-Zeit 01:41 13:50 00:00 - 00:00 01:30 01:30 00:00
Minimum _ 4,2 C 73 % 1002,4 hPa - 0,0 km/h (0 Bft) 3,4 C 4,3 C 0,0 km/h (0 Bft)
_ Max-Zeit 15:41 08:30 16:11 00:00 14:00 12:20 13:50 13:50
Maximum _ 13,2 C 97 % 1004,6 hPa 0,0 l/m 6,4 km/h
O-SO (2 Bft)
9,9 C 13,1 C 16,1 km/h
SO (3 Bft)
Durchschnitt _ 7,8 C 91 % 1003,4 hPa #0,0 l/m 2,3 km/h (1 Bft) 6,3 C 7,8 C 5,8 km/h (2 Bft)